createdAt,value
2022-10-15T00:01:35.383Z,99870.09
2022-10-15T00:04:02.965Z,99867.41
2022-10-15T00:06:30.507Z,99865.78
2022-10-15T00:08:58.112Z,99876.16
2022-10-15T00:11:28.621Z,99866.84
2022-10-15T00:13:59.313Z,99869.97
2022-10-15T00:16:29.082Z,99871.34
2022-10-15T00:18:58.841Z,99864.50
2022-10-15T00:21:26.750Z,99868.25
2022-10-15T00:23:54.365Z,99857.38
2022-10-15T00:26:25.486Z,99862.03
2022-10-15T00:28:56.119Z,99857.88
2022-10-15T00:31:26.527Z,99855.84
2022-10-15T00:33:57.168Z,99849.38
2022-10-15T00:36:33.036Z,99852.63
2022-10-15T00:39:06.750Z,99846.53
2022-10-15T00:41:40.225Z,99852.59
2022-10-15T00:44:25.787Z,99852.28
2022-10-15T00:47:12.318Z,99849.22
2022-10-15T00:49:54.670Z,99847.84
2022-10-15T00:52:31.180Z,99861.75
2022-10-15T00:55:08.308Z,99849.22
2022-10-15T00:57:36.334Z,99848.44
2022-10-15T01:00:12.676Z,99846.09
2022-10-15T01:02:41.041Z,99845.63
2022-10-15T01:05:09.569Z,99845.44
2022-10-15T01:07:38.855Z,99845.16
2022-10-15T01:10:12.040Z,99847.00
2022-10-15T01:12:42.688Z,99851.34
2022-10-15T01:15:50.078Z,99848.69
2022-10-15T01:18:32.554Z,99848.09
2022-10-15T01:21:37.388Z,99852.88
2022-10-15T01:25:07.720Z,99842.53
2022-10-15T01:28:10.814Z,99839.72
2022-10-15T01:30:45.289Z,99837.38
2022-10-15T01:34:17.264Z,99831.81
2022-10-15T01:37:12.113Z,99832.94
2022-10-15T01:39:56.555Z,99836.00
2022-10-15T01:42:39.385Z,99840.66
2022-10-15T01:45:19.718Z,99844.88
2022-10-15T01:48:14.073Z,99843.91
2022-10-15T01:50:48.089Z,99842.88
2022-10-15T01:53:26.546Z,99853.06
2022-10-15T01:56:00.405Z,99842.22
2022-10-15T01:58:30.631Z,99844.84
2022-10-15T02:00:59.964Z,99843.31
2022-10-15T02:03:27.622Z,99840.22
2022-10-15T02:06:08.808Z,99846.09
2022-10-15T02:08:57.425Z,99839.13
2022-10-15T02:11:25.304Z,99838.34
2022-10-15T02:14:09.553Z,99836.00
2022-10-15T02:17:10.257Z,99837.88
2022-10-15T02:19:51.793Z,99830.13
2022-10-15T02:22:23.754Z,99832.28
2022-10-15T02:24:58.482Z,99828.88
2022-10-15T02:27:29.110Z,99838.50
2022-10-15T02:29:58.835Z,99841.75
2022-10-15T02:32:28.017Z,99837.59
2022-10-15T02:34:56.673Z,99828.31
2022-10-15T02:37:27.630Z,99836.97
2022-10-15T02:39:55.231Z,99839.44
2022-10-15T02:42:24.905Z,99838.19
2022-10-15T02:44:53.047Z,99843.25
2022-10-15T02:47:20.628Z,99843.41
2022-10-15T02:49:48.325Z,99843.25
2022-10-15T02:52:16.156Z,99840.94
2022-10-15T02:54:43.754Z,99838.81
2022-10-15T02:57:11.652Z,99844.09
2022-10-15T02:59:42.071Z,99844.41
2022-10-15T03:02:11.345Z,99835.25
2022-10-15T03:04:42.078Z,99847.50
2022-10-15T03:07:09.653Z,99846.53
2022-10-15T03:09:37.253Z,99843.31
2022-10-15T03:12:06.007Z,99841.09
2022-10-15T03:14:34.509Z,99839.47
2022-10-15T03:17:02.344Z,99841.53
2022-10-15T03:19:30.890Z,99839.78
2022-10-15T03:21:58.615Z,99849.78
2022-10-15T03:24:31.195Z,99844.97
2022-10-15T03:26:58.995Z,99846.06
2022-10-15T03:29:26.612Z,99860.63
2022-10-15T03:32:00.495Z,99858.03
2022-10-15T03:34:28.114Z,99855.69
2022-10-15T03:36:55.625Z,99855.69
2022-10-15T03:39:23.448Z,99852.28
2022-10-15T03:41:55.886Z,99860.66
2022-10-15T03:44:30.921Z,99858.97
2022-10-15T03:47:08.079Z,99857.91
2022-10-15T03:49:47.690Z,99855.25
2022-10-15T03:52:15.879Z,99856.31
2022-10-15T03:54:44.117Z,99853.69
2022-10-15T03:57:15.864Z,99862.56
2022-10-15T03:59:47.568Z,99853.56
2022-10-15T04:02:16.529Z,99852.66
2022-10-15T04:04:45.583Z,99861.19
2022-10-15T04:07:13.453Z,99855.31
2022-10-15T04:09:40.952Z,99855.78
2022-10-15T04:12:24.407Z,99850.84
2022-10-15T04:14:52.403Z,99854.41
2022-10-15T04:17:20.579Z,99852.69
2022-10-15T04:19:49.200Z,99850.84
2022-10-15T04:22:16.877Z,99848.38
2022-10-15T04:24:51.882Z,99854.41
2022-10-15T04:27:29.602Z,99852.25
2022-10-15T04:30:13.521Z,99861.53
2022-10-15T04:32:53.264Z,99855.03
2022-10-15T04:35:21.818Z,99862.66
2022-10-15T04:38:21.300Z,99852.94
2022-10-15T04:41:07.963Z,99854.38
2022-10-15T04:43:49.383Z,99853.81
2022-10-15T04:46:17.099Z,99855.38
2022-10-15T04:48:45.488Z,99865.72
2022-10-15T04:51:19.105Z,99858.03
2022-10-15T04:54:05.290Z,99866.69
2022-10-15T04:56:33.657Z,99862.34
2022-10-15T04:59:08.700Z,99865.72
2022-10-15T05:01:56.220Z,99869.72
2022-10-15T05:04:24.037Z,99866.50
2022-10-15T05:06:51.531Z,99868.50
2022-10-15T05:09:20.793Z,99869.13
2022-10-15T05:11:50.951Z,99872.22
2022-10-15T05:14:18.819Z,99868.34
2022-10-15T05:17:03.369Z,99868.34
2022-10-15T05:19:50.840Z,99868.50
2022-10-15T05:22:23.356Z,99877.78
2022-10-15T05:24:54.952Z,99886.31
2022-10-15T05:27:27.678Z,99880.72
2022-10-15T05:29:55.424Z,99888.31
2022-10-15T05:32:28.027Z,99890.81
2022-10-15T05:34:55.617Z,99882.59
2022-10-15T05:37:25.178Z,99882.13
2022-10-15T05:39:53.021Z,99887.34
2022-10-15T05:42:20.722Z,99886.91
2022-10-15T05:44:57.467Z,99892.31
2022-10-15T05:47:25.632Z,99897.75
2022-10-15T05:50:15.646Z,99903.19
2022-10-15T05:52:46.992Z,99896.50
2022-10-15T05:55:35.113Z,99902.22
2022-10-15T05:58:04.125Z,99905.63
2022-10-15T06:00:35.613Z,99909.03
2022-10-15T06:03:03.300Z,99911.66
2022-10-15T06:05:30.793Z,99911.50
2022-10-15T06:07:58.410Z,99913.19
2022-10-15T06:10:26.058Z,99913.50
2022-10-15T06:12:53.707Z,99919.09
2022-10-15T06:15:21.245Z,99919.22
2022-10-15T06:17:51.861Z,99916.38
2022-10-15T06:20:19.636Z,99919.06
2022-10-15T06:22:47.284Z,99918.84
2022-10-15T06:25:15.071Z,99912.63
2022-10-15T06:27:42.980Z,99928.81
2022-10-15T06:30:11.412Z,99920.31
2022-10-15T06:32:38.924Z,99925.63
2022-10-15T06:35:07.149Z,99924.78
2022-10-15T06:37:35.617Z,99933.19
2022-10-15T06:40:03.137Z,99924.97
2022-10-15T06:42:30.694Z,99940.97
2022-10-15T06:44:58.265Z,99936.19
2022-10-15T06:47:26.289Z,99934.59
2022-10-15T06:49:54.090Z,99938.84
2022-10-15T06:52:21.668Z,99936.31
2022-10-15T06:54:50.946Z,99940.59
2022-10-15T06:57:22.255Z,99938.47
2022-10-15T06:59:50.041Z,99948.53
2022-10-15T07:02:19.383Z,99941.22
2022-10-15T07:04:47.932Z,99945.66
2022-10-15T07:07:18.904Z,99949.97
2022-10-15T07:09:47.589Z,99950.16
2022-10-15T07:12:17.451Z,99951.94
2022-10-15T07:14:45.079Z,99940.81
2022-10-15T07:17:12.698Z,99952.09
2022-10-15T07:19:40.284Z,99951.59
2022-10-15T07:22:08.127Z,99950.44
2022-10-15T07:24:35.598Z,99948.16
2022-10-15T07:27:12.374Z,99945.53
2022-10-15T07:29:45.981Z,99955.66
2022-10-15T07:32:13.743Z,99952.81
2022-10-15T07:34:41.252Z,99956.25
2022-10-15T07:37:08.899Z,99956.34
2022-10-15T07:39:39.169Z,99955.00
2022-10-15T07:42:09.434Z,99953.66
2022-10-15T07:44:37.040Z,99952.16
2022-10-15T07:47:08.206Z,99948.94
2022-10-15T07:49:38.599Z,99949.13
2022-10-15T07:52:08.781Z,99937.63
2022-10-15T07:54:38.034Z,99946.22
2022-10-15T07:57:07.398Z,99937.00
2022-10-15T07:59:35.656Z,99936.22
2022-10-15T08:02:03.352Z,99941.75
2022-10-15T08:04:30.936Z,99939.25
2022-10-15T08:06:58.471Z,99942.09
2022-10-15T08:09:26.034Z,99946.06
2022-10-15T08:11:53.512Z,99948.09
2022-10-15T08:14:21.022Z,99949.97
2022-10-15T08:16:48.632Z,99953.81
2022-10-15T08:19:17.854Z,99950.13
2022-10-15T08:21:47.566Z,99946.91
2022-10-15T08:24:15.486Z,99951.41
2022-10-15T08:26:43.171Z,99956.97
2022-10-15T08:29:11.866Z,99954.78
2022-10-15T08:31:43.193Z,99959.84
2022-10-15T08:34:10.846Z,99963.09
2022-10-15T08:36:38.365Z,99961.25
2022-10-15T08:39:07.387Z,99948.66
2022-10-15T08:41:52.386Z,99955.50
2022-10-15T08:44:30.298Z,99957.03
2022-10-15T08:47:07.383Z,99958.09
2022-10-15T08:49:54.121Z,99957.19
2022-10-15T08:52:47.388Z,99962.22
2022-10-15T08:55:19.997Z,99965.84
2022-10-15T08:58:04.258Z,99964.56
2022-10-15T09:00:41.513Z,99970.34
2022-10-15T09:03:33.039Z,99977.34
2022-10-15T09:06:15.146Z,99979.50
2022-10-15T09:09:10.546Z,99987.00
2022-10-15T09:12:27.958Z,99971.91
2022-10-15T09:14:58.546Z,99978.94
2022-10-15T09:17:32.808Z,99972.56
2022-10-15T09:20:06.516Z,99983.25
2022-10-15T09:22:36.334Z,99978.97
2022-10-15T09:25:20.213Z,99985.75
2022-10-15T09:27:50.115Z,99985.09
2022-10-15T09:30:48.472Z,99979.63
2022-10-15T09:34:04.841Z,99988.28
2022-10-15T09:36:57.155Z,99985.59
2022-10-15T09:39:41.208Z,99979.16
2022-10-15T09:42:30.878Z,99981.31
2022-10-15T09:45:10.447Z,99978.31
2022-10-15T09:47:40.689Z,99966.69
2022-10-15T09:50:12.880Z,99971.13
2022-10-15T09:53:07.980Z,99970.84
2022-10-15T09:56:12.714Z,99969.19
2022-10-15T09:58:50.981Z,99973.78
2022-10-15T10:01:31.645Z,99969.09
2022-10-15T10:04:14.271Z,99968.00
2022-10-15T10:06:53.903Z,99966.00
2022-10-15T10:09:52.473Z,99971.91
2022-10-15T10:12:41.956Z,99960.13
2022-10-15T10:15:39.667Z,99959.66
2022-10-15T10:18:09.990Z,99954.03
2022-10-15T10:20:54.562Z,99955.72
2022-10-15T10:23:30.073Z,99945.56
2022-10-15T10:26:00.198Z,99939.94
2022-10-15T10:28:44.319Z,99936.06
2022-10-15T10:31:13.144Z,99944.75
2022-10-15T10:33:44.476Z,99946.31
2022-10-15T10:36:34.381Z,99936.34
2022-10-15T10:39:34.879Z,99938.78
2022-10-15T10:42:26.320Z,99926.47
2022-10-15T10:44:54.553Z,99927.47
2022-10-15T10:47:27.002Z,99919.38
2022-10-15T10:49:59.579Z,99927.03
2022-10-15T10:52:37.078Z,99918.06
2022-10-15T10:55:24.458Z,99910.53
2022-10-15T10:58:00.320Z,99908.75
2022-10-15T11:00:41.538Z,99912.47
2022-10-15T11:03:30.007Z,99906.06
2022-10-15T11:06:51.212Z,99908.06
2022-10-15T11:09:42.614Z,99905.50
2022-10-15T11:12:28.225Z,99905.38
2022-10-15T11:15:17.523Z,99905.09
2022-10-15T11:18:27.237Z,99902.41
2022-10-15T11:21:27.489Z,99910.09
2022-10-15T11:24:17.009Z,99907.78
2022-10-15T11:26:59.124Z,99906.25
2022-10-15T11:30:27.813Z,99900.47
2022-10-15T11:33:19.823Z,99898.44
2022-10-15T11:36:31.641Z,99901.66
2022-10-15T11:39:35.255Z,99888.94
2022-10-15T11:42:26.171Z,99889.28
2022-10-15T11:45:27.515Z,99886.72
2022-10-15T11:47:56.984Z,99885.28
2022-10-15T11:50:56.300Z,99886.44
2022-10-15T11:54:09.563Z,99891.84
2022-10-15T11:56:49.177Z,99886.38
2022-10-15T11:59:30.261Z,99878.66
2022-10-15T12:02:09.784Z,99885.06
2022-10-15T12:04:45.328Z,99872.56
2022-10-15T12:07:28.902Z,99878.66
2022-10-15T12:10:11.783Z,99880.38
2022-10-15T12:12:53.970Z,99880.66
2022-10-15T12:15:36.583Z,99878.72
2022-10-15T12:18:12.769Z,99881.44
2022-10-15T12:20:46.101Z,99884.31
2022-10-15T12:23:41.329Z,99886.94
2022-10-15T12:26:32.288Z,99893.88
2022-10-15T12:29:05.525Z,99882.84
2022-10-15T12:31:53.160Z,99891.56
2022-10-15T12:34:55.619Z,99883.28
2022-10-15T12:37:30.038Z,99892.47
2022-10-15T12:40:04.746Z,99883.28
2022-10-15T12:42:37.133Z,99883.31
2022-10-15T12:45:24.784Z,99877.56
2022-10-15T12:48:19.601Z,99886.25
2022-10-15T12:50:47.311Z,99888.19
2022-10-15T12:53:28.818Z,99882.78
2022-10-15T12:56:23.675Z,99884.91
2022-10-15T12:58:56.420Z,99878.25
2022-10-15T13:01:23.858Z,99884.78
2022-10-15T13:03:51.358Z,99886.81
2022-10-15T13:06:31.885Z,99882.84
2022-10-15T13:09:11.227Z,99890.53
2022-10-15T13:11:54.729Z,99890.19
2022-10-15T13:14:42.777Z,99878.63
2022-10-15T13:17:22.203Z,99892.31
2022-10-15T13:20:01.014Z,99890.53
2022-10-15T13:22:34.753Z,99892.47
2022-10-15T13:25:03.340Z,99891.03
2022-10-15T13:27:39.735Z,99893.41
2022-10-15T13:30:16.317Z,99885.84
2022-10-15T13:32:49.630Z,99894.09
2022-10-15T13:35:31.420Z,99899.59
2022-10-15T13:38:00.407Z,99884.50
2022-10-15T13:40:30.435Z,99894.16
2022-10-15T13:43:07.000Z,99889.88
2022-10-15T13:45:35.553Z,99890.47
2022-10-15T13:48:03.171Z,99886.41
2022-10-15T13:50:33.223Z,99886.91
2022-10-15T13:53:37.998Z,99885.06
2022-10-15T13:56:27.990Z,99880.19
2022-10-15T13:58:56.525Z,99886.75
2022-10-15T14:01:26.999Z,99883.66
2022-10-15T14:04:00.332Z,99878.59
2022-10-15T14:06:39.261Z,99876.66
2022-10-15T14:09:35.307Z,99880.78
2022-10-15T14:12:07.695Z,99884.06
2022-10-15T14:14:43.925Z,99882.97
2022-10-15T14:17:24.855Z,99890.94
2022-10-15T14:20:21.625Z,99888.09
2022-10-15T14:22:49.845Z,99883.44
2022-10-15T14:25:23.825Z,99883.22
2022-10-15T14:27:52.198Z,99886.88
2022-10-15T14:30:42.988Z,99876.13
2022-10-15T14:33:38.540Z,99882.31
2022-10-15T14:36:22.570Z,99879.81
2022-10-15T14:38:52.262Z,99878.28
2022-10-15T14:41:30.011Z,99879.44
2022-10-15T14:44:17.927Z,99877.69
2022-10-15T14:46:50.637Z,99887.78
2022-10-15T14:49:33.076Z,99891.16
2022-10-15T14:52:17.325Z,99883.53
2022-10-15T14:55:33.771Z,99883.09
2022-10-15T14:58:09.001Z,99884.44
2022-10-15T15:00:49.364Z,99877.97
2022-10-15T15:03:22.726Z,99873.56
2022-10-15T15:05:57.732Z,99882.69
2022-10-15T15:08:27.089Z,99883.19
2022-10-15T15:11:24.950Z,99879.13
2022-10-15T15:13:55.563Z,99893.41
2022-10-15T15:16:23.125Z,99893.00
2022-10-15T15:18:50.577Z,99885.97
2022-10-15T15:21:23.253Z,99892.47
2022-10-15T15:23:52.542Z,99903.47
2022-10-15T15:26:20.188Z,99896.50
2022-10-15T15:28:47.885Z,99903.78
2022-10-15T15:31:19.054Z,99903.94
2022-10-15T15:33:47.076Z,99906.88
2022-10-15T15:36:20.964Z,99905.88
2022-10-15T15:38:52.759Z,99906.41
2022-10-15T15:41:24.008Z,99903.13
2022-10-15T15:43:52.112Z,99906.13
2022-10-15T15:46:20.633Z,99915.97
2022-10-15T15:48:48.255Z,99916.56
2022-10-15T15:51:26.640Z,99924.53
2022-10-15T15:53:54.970Z,99919.13
2022-10-15T15:56:23.333Z,99936.94
2022-10-15T15:58:51.954Z,99937.72
2022-10-15T16:01:21.236Z,99933.09
2022-10-15T16:03:48.980Z,99943.47
2022-10-15T16:06:16.545Z,99936.97
2022-10-15T16:08:46.515Z,99944.16
2022-10-15T16:11:14.099Z,99952.56
2022-10-15T16:13:43.163Z,99953.66
2022-10-15T16:16:11.680Z,99947.91
2022-10-15T16:18:39.630Z,99959.28
2022-10-15T16:21:08.748Z,99967.22
2022-10-15T16:23:36.307Z,99967.50
2022-10-15T16:26:03.810Z,99973.13
2022-10-15T16:28:33.815Z,99979.00
2022-10-15T16:31:30.278Z,99984.56
2022-10-15T16:33:59.727Z,99981.22
2022-10-15T16:36:27.393Z,99984.03
2022-10-15T16:38:54.976Z,99989.75
2022-10-15T16:41:24.238Z,99985.31
2022-10-15T16:43:53.160Z,99991.09
2022-10-15T16:46:21.542Z,100000.47
2022-10-15T16:48:57.227Z,99999.03
2022-10-15T16:51:25.516Z,99997.03
2022-10-15T16:53:54.745Z,100003.38
2022-10-15T16:56:31.072Z,100004.13
2022-10-15T16:59:00.491Z,100006.91
2022-10-15T17:01:31.875Z,100011.56
2022-10-15T17:04:00.183Z,100012.75
2022-10-15T17:06:31.090Z,100024.09
2022-10-15T17:09:06.153Z,100020.31
2022-10-15T17:11:47.670Z,100020.81
2022-10-15T17:14:19.017Z,100027.59
2022-10-15T17:16:53.632Z,100027.28
2022-10-15T17:19:28.955Z,100030.50
2022-10-15T17:22:01.988Z,100030.78
2022-10-15T17:24:30.243Z,100038.56
2022-10-15T17:27:00.538Z,100051.25
2022-10-15T17:29:33.255Z,100043.13
2022-10-15T17:32:03.487Z,100051.50
2022-10-15T17:34:34.240Z,100047.31
2022-10-15T17:37:05.421Z,100059.75
2022-10-15T17:39:54.231Z,100054.75
2022-10-15T17:42:22.007Z,100065.06
2022-10-15T17:44:52.164Z,100071.75
2022-10-15T17:47:22.425Z,100072.25
2022-10-15T17:49:51.911Z,100069.44
2022-10-15T17:52:20.983Z,100077.06
2022-10-15T17:54:48.525Z,100077.34
2022-10-15T17:57:18.587Z,100079.22
2022-10-15T17:59:48.841Z,100081.72
2022-10-15T18:02:19.043Z,100080.34
2022-10-15T18:04:48.596Z,100093.78
2022-10-15T18:07:19.880Z,100099.75
2022-10-15T18:09:58.028Z,100098.09
2022-10-15T18:12:27.326Z,100098.31
2022-10-15T18:14:59.571Z,100092.53
2022-10-15T18:17:28.773Z,100103.38
2022-10-15T18:19:59.229Z,100100.16
2022-10-15T18:22:27.967Z,100103.97
2022-10-15T18:24:57.473Z,100107.66
2022-10-15T18:27:49.030Z,100107.91
2022-10-15T18:30:19.406Z,100104.81
2022-10-15T18:32:52.163Z,100103.53
2022-10-15T18:35:24.151Z,100113.47
2022-10-15T18:37:55.854Z,100109.25
2022-10-15T18:40:26.818Z,100113.72
2022-10-15T18:42:56.851Z,100112.03
2022-10-15T18:45:52.904Z,100114.22
2022-10-15T18:48:20.768Z,100114.22
2022-10-15T18:50:50.300Z,100115.66
2022-10-15T18:53:20.472Z,100116.28
2022-10-15T18:55:51.063Z,100111.00
2022-10-15T18:58:19.293Z,100115.47
2022-10-15T19:00:48.208Z,100116.69
2022-10-15T19:03:16.388Z,100119.59
2022-10-15T19:05:45.183Z,100122.25
2022-10-15T19:08:20.684Z,100129.31
2022-10-15T19:10:49.084Z,100135.25
2022-10-15T19:13:19.133Z,100140.25
2022-10-15T19:15:46.795Z,100140.69
2022-10-15T19:18:15.850Z,100138.13
2022-10-15T19:20:46.546Z,100146.13
2022-10-15T19:23:15.114Z,100149.59
2022-10-15T19:25:49.829Z,100158.34
2022-10-15T19:28:18.946Z,100153.09
2022-10-15T19:31:00.213Z,100153.03
2022-10-15T19:33:29.701Z,100152.66
2022-10-15T19:35:57.872Z,100155.59
2022-10-15T19:38:31.631Z,100149.56
2022-10-15T19:41:12.050Z,100156.69
2022-10-15T19:43:39.968Z,100158.41
2022-10-15T19:46:37.130Z,100161.78
2022-10-15T19:49:06.894Z,100166.16
2022-10-15T19:51:36.709Z,100159.31
2022-10-15T19:54:06.515Z,100156.84
2022-10-15T19:56:37.500Z,100162.00
2022-10-15T19:59:07.043Z,100159.84
2022-10-15T20:01:35.103Z,100160.31
2022-10-15T20:04:06.275Z,100154.59
2022-10-15T20:06:43.575Z,100157.53
2022-10-15T20:09:12.153Z,100153.53
2022-10-15T20:11:40.098Z,100157.75
2022-10-15T20:14:07.689Z,100163.66
2022-10-15T20:16:35.653Z,100171.25
2022-10-15T20:19:06.254Z,100174.06
2022-10-15T20:21:34.132Z,100179.00
2022-10-15T20:24:05.267Z,100180.75
2022-10-15T20:26:38.723Z,100184.63
2022-10-15T20:29:06.342Z,100181.69
2022-10-15T20:31:35.726Z,100186.16
2022-10-15T20:34:04.047Z,100180.09
2022-10-15T20:36:31.645Z,100181.66
2022-10-15T20:39:04.166Z,100195.28
2022-10-15T20:41:32.223Z,100186.53
2022-10-15T20:44:02.911Z,100198.16
2022-10-15T20:47:00.454Z,100200.88
2022-10-15T20:49:36.159Z,100196.41
2022-10-15T20:52:05.709Z,100189.69
2022-10-15T20:54:33.861Z,100188.50
2022-10-15T20:57:02.125Z,100182.44
2022-10-15T20:59:30.559Z,100181.66
2022-10-15T21:01:59.276Z,100189.09
2022-10-15T21:04:26.783Z,100192.06
2022-10-15T21:06:54.963Z,100188.97
2022-10-15T21:09:24.218Z,100183.28
2022-10-15T21:11:52.180Z,100189.66
2022-10-15T21:14:20.698Z,100190.28
2022-10-15T21:16:49.697Z,100189.09
2022-10-15T21:19:18.708Z,100194.22
2022-10-15T21:21:46.197Z,100194.19
2022-10-15T21:24:14.825Z,100193.66
2022-10-15T21:26:42.366Z,100193.50
2022-10-15T21:29:15.426Z,100195.34
2022-10-15T21:31:44.223Z,100198.75
2022-10-15T21:34:11.879Z,100197.22
2022-10-15T21:36:39.946Z,100192.44
2022-10-15T21:39:09.816Z,100185.16
2022-10-15T21:41:40.058Z,100196.78
2022-10-15T21:44:08.831Z,100194.75
2022-10-15T21:46:36.587Z,100202.97
2022-10-15T21:49:04.203Z,100212.13
2022-10-15T21:51:34.205Z,100209.63
2022-10-15T21:54:03.983Z,100219.06
2022-10-15T21:56:32.868Z,100220.97
2022-10-15T21:59:03.037Z,100225.91
2022-10-15T22:01:33.389Z,100222.31
2022-10-15T22:04:05.359Z,100228.78
2022-10-15T22:06:40.088Z,100228.47
2022-10-15T22:09:12.270Z,100230.03
2022-10-15T22:11:42.076Z,100230.50
2022-10-15T22:14:13.353Z,100233.06
2022-10-15T22:16:44.094Z,100231.88
2022-10-15T22:19:15.294Z,100237.00
2022-10-15T22:21:43.206Z,100237.16
2022-10-15T22:24:23.627Z,100228.00
2022-10-15T22:26:54.717Z,100234.94
2022-10-15T22:29:34.575Z,100233.84
2022-10-15T22:32:05.787Z,100232.69
2022-10-15T22:34:33.335Z,100239.66
2022-10-15T22:37:01.762Z,100248.66
2022-10-15T22:39:29.392Z,100262.38
2022-10-15T22:41:56.992Z,100268.38
2022-10-15T22:44:24.430Z,100268.81
2022-10-15T22:46:51.927Z,100270.81
2022-10-15T22:49:22.147Z,100266.94
2022-10-15T22:51:51.157Z,100264.56
2022-10-15T22:54:22.706Z,100269.06
2022-10-15T22:56:51.559Z,100270.75
2022-10-15T22:59:20.146Z,100278.78
2022-10-15T23:01:47.685Z,100277.53
2022-10-15T23:04:16.882Z,100270.06
2022-10-15T23:06:45.210Z,100277.75
2022-10-15T23:09:17.806Z,100271.88
2022-10-15T23:11:45.975Z,100277.94
2022-10-15T23:14:16.381Z,100277.63
2022-10-15T23:16:47.335Z,100279.69
2022-10-15T23:19:19.370Z,100275.00
2022-10-15T23:21:53.768Z,100282.84
2022-10-15T23:24:24.387Z,100288.50
2022-10-15T23:26:52.880Z,100284.13
2022-10-15T23:29:24.685Z,100285.38
2022-10-15T23:31:53.359Z,100285.56
2022-10-15T23:34:25.865Z,100279.75
2022-10-15T23:36:54.262Z,100272.16
2022-10-15T23:39:26.452Z,100272.56
2022-10-15T23:41:55.363Z,100274.22
2022-10-15T23:44:25.661Z,100283.16
2022-10-15T23:46:53.867Z,100276.47
2022-10-15T23:49:21.303Z,100273.84
2022-10-15T23:51:49.126Z,100271.41
2022-10-15T23:54:18.916Z,100282.88
2022-10-15T23:56:47.945Z,100287.00
2022-10-15T23:59:17.510Z,100279.38
